Dades meteomassalio
Diari Summary for Octubre 20, 2017 Units:  Metric    English   Both
« Previous Day
Next Day »
Diari Semanal Mensual Anual Personalitzat
  Maxima: Minima: Mijana:
Temperatura: -17.8 °C -13.8 °C -9.4 °C
Rosada: -17.8 °C -15.7 °C -13.3 °C
Humitat: Humidity % 45 % 64 %
Velocitat del vent: 0 km/h 0 km/h 9 km/h
Racha vent: 0 km/h - -
Vent:- - WSW
Pressio: 0 hPa 34395 hPa -
Pluja: 0 mm    
Historical Graphs
 
 
Tabular Data for Octubre 20, 2017
Time Temperature Dew Point Pressure Wind Wind Speed Wind Gust Humidity Rainfall Rate (Hourly) solar Conditions
-17.8 °C -17.8 °C 0 hPa Calm     Humidity % 0 mm SolarRadiationWatts/m^2 W/m2 Conditions
00:00 -9.1 °C -12.4 °C 34395 hPa WSW 38.8 km/h 38.8 km/h 68 % 0 mm 0.0 W/m2 CLR
00:05 -9.1 °C -12.4 °C 34395 hPa SW 41.7 km/h 41.7 km/h 68 % 0 mm 0.0 W/m2 CLR
00:10 -9.1 °C -12.4 °C 34395 hPa SW 38.8 km/h 38.8 km/h 68 % 0 mm 0.0 W/m2 CLR
00:15 -9.1 °C -12.4 °C 34395 hPa SW 46.7 km/h 46.7 km/h 68 % 0 mm 0.0 W/m2 CLR
00:20 -9.1 °C -12.4 °C 34395 hPa WSW 38.8 km/h 38.8 km/h 68 % 0 mm 0.0 W/m2 CLR
00:25 -9.1 °C -12.4 °C 34395 hPa WSW 41.7 km/h 41.7 km/h 68 % 0 mm 0.0 W/m2 CLR
00:30 -9.1 °C -12.4 °C 34405.1 hPa WSW 41.7 km/h 41.7 km/h 68 % 0 mm 0.0 W/m2 CLR
00:35 -9.1 °C -12.4 °C 34405.1 hPa WSW 41.4 km/h 41.4 km/h 68 % 0 mm 0.0 W/m2 CLR
00:41 -9.1 °C -12.3 °C 34405.1 hPa WSW 35.7 km/h 35.7 km/h 69 % 0 mm 0.0 W/m2 CLR
00:46 -9.1 °C -12.3 °C 34405.1 hPa WSW 47.6 km/h 47.6 km/h 69 % 0 mm 0.0 W/m2 CLR
00:51 -9.1 °C -12.3 °C 34405.1 hPa SW 44.7 km/h 44.7 km/h 69 % 0 mm 0.0 W/m2 CLR
00:56 -9.1 °C -12.2 °C 34418.7 hPa WSW 41.7 km/h 41.7 km/h 70 % 0 mm 0.0 W/m2 CLR
01:01 -9.1 °C -12.2 °C 34418.7 hPa WSW 47.6 km/h 47.6 km/h 70 % 0 mm 0.0 W/m2 CLR
01:06 -9.1 °C -12.2 °C 34418.7 hPa WSW 38.8 km/h 38.8 km/h 70 % 0 mm 0.0 W/m2 CLR
01:11 -9.1 °C -12.3 °C 34428.8 hPa WSW 44.7 km/h 44.7 km/h 69 % 0 mm 0.0 W/m2 CLR
01:16 -9.1 °C -12.3 °C 34428.8 hPa WSW 44.1 km/h 44.1 km/h 69 % 0 mm 0.0 W/m2 CLR
01:21 -9.1 °C -12.2 °C 34428.8 hPa SW 35.7 km/h 35.7 km/h 70 % 0 mm 0.0 W/m2 CLR
01:26 -9.1 °C -12.3 °C 34428.8 hPa SW 36.2 km/h 36.2 km/h 69 % 0 mm 0.0 W/m2 CLR
01:31 -9.1 °C -12.3 °C 34428.8 hPa SW 29.8 km/h 29.8 km/h 69 % 0 mm 0.0 W/m2 CLR
01:36 -9.1 °C -12.3 °C 34428.8 hPa SSW 44.7 km/h 44.7 km/h 69 % 0 mm 0.0 W/m2 CLR
01:41 -9.1 °C -12.3 °C 34428.8 hPa SW 44.1 km/h 44.1 km/h 69 % 0 mm 0.0 W/m2 CLR
01:46 -9.1 °C -12.3 °C 34428.8 hPa SW 29.8 km/h 29.8 km/h 69 % 0 mm 0.0 W/m2 CLR
01:51 -9.1 °C -12.3 °C 34428.8 hPa SW 26.9 km/h 26.9 km/h 69 % 0 mm 0.0 W/m2 CLR
01:56 -9.1 °C -12.3 °C 34428.8 hPa SW 29.8 km/h   69 % 0 mm 0.0 W/m2 CLR
02:01 -9.4 °C -12.6 °C 34428.8 hPa SSW 23.8 km/h 23.8 km/h 69 % 0 mm 0.0 W/m2 CLR
02:06 -9.4 °C -12.6 °C 34428.8 hPa Calm     69 % 0 mm 0.0 W/m2 CLR
02:11 -9.4 °C -12.6 °C 34442.4 hPa Calm     69 % 0 mm 0.0 W/m2 CLR
02:16 -9.4 °C -12.6 °C 34428.8 hPa Calm     69 % 0 mm 0.0 W/m2 CLR
02:21 -9.8 °C -12.9 °C 34442.4 hPa Calm     69 % 0 mm 0.0 W/m2 CLR
02:26 -9.8 °C -12.9 °C 34442.4 hPa Calm     69 % 0 mm 0.0 W/m2 CLR
02:31 -10.1 °C -13.2 °C 34442.4 hPa Calm     69 % 0 mm 0.0 W/m2 CLR
02:36 -10.1 °C -13.2 °C 34442.4 hPa SW 15 km/h   69 % 0 mm 0.0 W/m2 CLR
02:41 -10.1 °C -13.3 °C 34442.4 hPa SW 15 km/h   68 % 0 mm 0.0 W/m2 CLR
02:46 -10.1 °C -13.3 °C 34442.4 hPa SW 17.9 km/h 17.9 km/h 68 % 0 mm 0.0 W/m2 CLR
02:51 -10.1 °C -13.3 °C 34442.4 hPa WSW 31.1 km/h 31.1 km/h 68 % 0 mm 0.0 W/m2 CLR
02:56 -9.8 °C -13.1 °C 34442.4 hPa SSW 29.8 km/h 29.8 km/h 67 % 0 mm 0.0 W/m2 CLR
03:01 -9.8 °C -13.1 °C 34442.4 hPa SSW 29.8 km/h 29.8 km/h 67 % 0 mm 0.0 W/m2 CLR
03:06 -9.4 °C -12.8 °C 34442.4 hPa SW 29.8 km/h 29.8 km/h 67 % 0 mm 0.0 W/m2 CLR
03:11 -9.4 °C -12.8 °C 34452.6 hPa SSW 26.9 km/h 26.9 km/h 67 % 0 mm 0.0 W/m2 CLR
03:16 -9.8 °C -13.1 °C 34452.6 hPa SSW 23.3 km/h 23.3 km/h 67 % 0 mm 0.0 W/m2 CLR
03:21 -9.8 °C -13.1 °C 34452.6 hPa SW 38.8 km/h 38.8 km/h 67 % 0 mm 0.0 W/m2 CLR
03:26 -9.8 °C -13.1 °C 34452.6 hPa SSW 29.8 km/h 29.8 km/h 67 % 0 mm 0.0 W/m2 CLR
03:31 -9.8 °C -13.1 °C 34452.6 hPa SW 28.5 km/h 28.5 km/h 67 % 0 mm 0.0 W/m2 CLR
03:36 -9.8 °C -13.1 °C 34452.6 hPa SW 26.9 km/h 26.9 km/h 67 % 0 mm 0.0 W/m2 CLR
03:41 -9.8 °C -13.2 °C 34452.6 hPa SW 28.5 km/h 28.5 km/h 66 % 0 mm 0.0 W/m2 CLR
03:46 -9.8 °C -13.2 °C 34452.6 hPa SSW 35.7 km/h 35.7 km/h 66 % 0 mm 0.0 W/m2 CLR
03:51 -9.8 °C -13.2 °C 34452.6 hPa SW 29.8 km/h 29.8 km/h 66 % 0 mm 0.0 W/m2 CLR
03:56 -9.8 °C -13.2 °C 34452.6 hPa SW 23.8 km/h 23.8 km/h 66 % 0 mm 0.0 W/m2 CLR
04:01 -9.8 °C -13.2 °C 34452.6 hPa SSW 23.3 km/h 23.3 km/h 66 % 0 mm 0.0 W/m2 CLR
04:06 -9.8 °C -13.2 °C 34452.6 hPa SSW 29.8 km/h 29.8 km/h 66 % 0 mm 0.0 W/m2 CLR
04:11 -10.1 °C -13.4 °C 34452.6 hPa SW 25.9 km/h 25.9 km/h 67 % 0 mm 0.0 W/m2 CLR
04:16 -10.1 °C -13.4 °C 34452.6 hPa SW 36.2 km/h 36.2 km/h 67 % 0 mm 0.0 W/m2 CLR
04:21 -10.1 °C -13.4 °C 34452.6 hPa SSW 26.9 km/h 26.9 km/h 67 % 0 mm 0.0 W/m2 CLR
04:26 -10.1 °C -13.4 °C 34452.6 hPa Calm   1 km/h 67 % 0 mm 0.0 W/m2 CLR
04:32 -10.4 °C -13.6 °C 34452.6 hPa SW 3.1 km/h   68 % 0 mm 0.0 W/m2 CLR
04:37 -10.1 °C -13.4 °C 34462.7 hPa Calm     67 % 0 mm 0.0 W/m2 CLR
04:42 -10.4 °C -13.6 °C 34462.7 hPa Calm     68 % 0 mm 0.0 W/m2 CLR
04:47 -10.7 °C -13.9 °C 34462.7 hPa Calm     68 % 0 mm 0.0 W/m2 CLR
04:52 -11 °C -14.2 °C 34462.7 hPa Calm     68 % 0 mm 0.0 W/m2 CLR
04:57 -11 °C -14.1 °C 34462.7 hPa Calm     69 % 0 mm 0.0 W/m2 CLR
05:02 -11 °C -14.1 °C 34462.7 hPa Calm     69 % 0 mm 0.0 W/m2 CLR
05:07 -10.7 °C -13.8 °C 34462.7 hPa Calm     69 % 0 mm 0.0 W/m2 CLR
05:12 -10.7 °C -13.8 °C 34462.7 hPa Calm     69 % 0 mm 0.0 W/m2 CLR
05:17 -11 °C -13.9 °C 34462.7 hPa Calm     70 % 0 mm 0.0 W/m2 CLR
05:21 -11 °C -14.1 °C 34462.7 hPa Calm     69 % 0 mm 0.0 W/m2 CLR
05:25 -11.3 °C -14.2 °C 34462.7 hPa Calm     70 % 0 mm 0.0 W/m2 CLR
05:30 -11.3 °C -14.2 °C 34476.3 hPa Calm     70 % 0 mm 0.0 W/m2 CLR
05:31 -11.3 °C -14.2 °C 34476.3 hPa Calm     70 % 0 mm 0.0 W/m2 CLR
05:36 -11.3 °C -14.2 °C 34476.3 hPa Calm     70 % 0 mm 0.0 W/m2 CLR
05:41 -11.6 °C -14.6 °C 34476.3 hPa Calm     70 % 0 mm 0.0 W/m2 CLR
05:46 -11.6 °C -14.4 °C 34476.3 hPa Calm     71 % 0 mm 0.0 W/m2 CLR
05:51 -11.6 °C -14.4 °C 34476.3 hPa Calm     71 % 0 mm 0.0 W/m2 CLR
05:56 -11.6 °C -14.4 °C 34476.3 hPa Calm     71 % 0 mm 0.0 W/m2 CLR
06:01 -11.9 °C -14.7 °C 34476.3 hPa Calm     71 % 0 mm 0.0 W/m2 CLR
06:06 -11.9 °C -14.7 °C 34476.3 hPa Calm     71 % 0 mm 0.0 W/m2 CLR
06:11 -11.9 °C -14.7 °C 34476.3 hPa Calm     71 % 0 mm 0.0 W/m2 CLR
06:16 -11.9 °C -14.7 °C 34476.3 hPa Calm     71 % 0 mm 0.0 W/m2 CLR
06:21 -11.9 °C -14.7 °C 34486.4 hPa Calm     71 % 0 mm 0.0 W/m2 CLR
06:26 -11.9 °C -14.6 °C 34476.3 hPa Calm     72 % 0 mm 0.0 W/m2 CLR
06:31 -11.9 °C -14.6 °C 34486.4 hPa Calm     72 % 0 mm 0.0 W/m2 CLR
06:36 -12.2 °C -14.9 °C 34486.4 hPa Calm     72 % 0 mm 0.0 W/m2 CLR
06:41 -12.2 °C -14.8 °C 34486.4 hPa Calm     73 % 0 mm 0.0 W/m2 CLR
06:46 -12.2 °C -14.8 °C 34486.4 hPa Calm     73 % 0 mm 0.0 W/m2 CLR
06:51 -12.6 °C -15.1 °C 34486.4 hPa Calm     73 % 0 mm 0.0 W/m2 CLR
06:56 -12.6 °C -15.1 °C 34486.4 hPa Calm     73 % 0 mm 0.0 W/m2 CLR
07:01 -12.6 °C -14.9 °C 34486.4 hPa Calm     74 % 0 mm 0.0 W/m2 CLR
07:06 -12.8 °C -15.3 °C 34496.6 hPa Calm     74 % 0 mm 0.0 W/m2 CLR
07:11 -12.8 °C -15.2 °C 34486.4 hPa Calm     75 % 0 mm 0.0 W/m2 CLR
07:16 -12.8 °C -15.3 °C 34496.6 hPa Calm     74 % 0 mm 0.0 W/m2 CLR
07:21 -13.2 °C -15.6 °C 34510.1 hPa Calm     74 % 0 mm 0.0 W/m2 CLR
07:26 -13.2 °C -15.6 °C 34510.1 hPa Calm     74 % 0 mm 0.0 W/m2 CLR
07:31 -13.2 °C -15.6 °C 34510.1 hPa Calm     74 % 0 mm 0.0 W/m2 CLR
07:36 -13.2 °C -15.4 °C 34510.1 hPa Calm     75 % 0 mm 0.0 W/m2 CLR
07:41 -13.2 °C -15.4 °C 34510.1 hPa Calm     75 % 0 mm 0.0 W/m2 CLR
07:46 -13.4 °C -15.7 °C 34510.1 hPa Calm     76 % 0 mm 0.0 W/m2 CLR
07:51 -13.4 °C -15.7 °C 34520.3 hPa Calm     76 % 0 mm 0.0 W/m2 CLR
07:56 -13.4 °C -15.6 °C 34520.3 hPa Calm     77 % 0 mm 0.0 W/m2 CLR
08:01 -13.4 °C -15.4 °C 34520.3 hPa Calm     78 % 0 mm 0.0 W/m2 CLR
08:06 -13.4 °C -15.3 °C 34533.8 hPa Calm     79 % 0 mm 0.0 W/m2 CLR
08:11 -13.4 °C -15.3 °C 34533.8 hPa Calm     79 % 0 mm 0.0 W/m2 OVC
08:16 -13.8 °C -15.7 °C 34520.3 hPa Calm     79 % 0 mm 5.0 W/m2 OVC
08:21 -13.8 °C -15.7 °C 34520.3 hPa Calm     79 % 0 mm 0.0 W/m2 OVC
08:26 -13.8 °C -15.7 °C 34533.8 hPa Calm     79 % 0 mm 5.0 W/m2 OVC
08:31 -13.8 °C -15.6 °C 34533.8 hPa Calm     80 % 0 mm 12.0 W/m2 BKN
08:36 -13.8 °C -15.6 °C 34533.8 hPa Calm     80 % 0 mm 25.0 W/m2 BKN
08:46 -13.4 °C -15.1 °C 34544 hPa Calm     82 % 0 mm 39.0 W/m2 BKN
08:51 -13.4 °C -14.9 °C 34544 hPa Calm     83 % 0 mm 40.0 W/m2 BKN
08:56 -13.4 °C -14.9 °C 34554.1 hPa Calm     83 % 0 mm 40.0 W/m2 BKN
09:01 -13.2 °C -14.7 °C 34554.1 hPa Calm     83 % 0 mm 53.0 W/m2 SCT
09:06 -13.2 °C -14.7 °C 34567.7 hPa Calm     83 % 0 mm 93.0 W/m2 CLR
09:11 -12.8 °C -14.4 °C 34567.7 hPa Calm     82 % 0 mm 91.0 W/m2 CLR
09:16 -12.8 °C -14.4 °C 34567.7 hPa Calm     82 % 0 mm 83.0 W/m2 FEW
09:21 -12.6 °C -14.3 °C 34567.7 hPa Calm     81 % 0 mm 109.0 W/m2 CLR
09:26 -12.2 °C -13.9 °C 34567.7 hPa Calm     81 % 0 mm 98.0 W/m2 CLR
09:31 -11.9 °C -13.8 °C 34567.7 hPa Calm     80 % 0 mm 179.0 W/m2 CLR
09:36 -11.3 °C -13.4 °C 34567.7 hPa Calm     78 % 0 mm 137.0 W/m2 CLR
09:41 -11.3 °C -13.4 °C 34567.7 hPa Calm     77 % 0 mm 107.0 W/m2 CLR
09:46 -11 °C -13.3 °C 34577.8 hPa Calm     76 % 0 mm 188.0 W/m2 CLR
09:51 -11 °C -13.6 °C 34577.8 hPa Calm     73 % 0 mm 244.0 W/m2 CLR
09:56 -10.7 °C -13.3 °C 34577.8 hPa Calm     73 % 0 mm 139.0 W/m2 CLR
10:01 -10.4 °C -13.2 °C 34591.4 hPa Calm     71 % 0 mm 206.0 W/m2 CLR
10:06 -10.4 °C -13.4 °C 34591.4 hPa Calm     69 % 0 mm 257.0 W/m2 CLR
10:11 -10.4 °C -13.6 °C 34591.4 hPa Calm     68 % 0 mm 323.0 W/m2 CLR
10:16 -10.1 °C -13.6 °C 34591.4 hPa Calm     66 % 0 mm 246.0 W/m2 CLR
10:21 -9.8 °C -13.4 °C 34591.4 hPa Calm     65 % 0 mm 221.0 W/m2 CLR
10:26 -9.8 °C -13.5 °C 34591.4 hPa Calm     64 % 0 mm 267.0 W/m2 CLR
10:31 -9.4 °C -13.3 °C 34591.4 hPa Calm     63 % 0 mm 290.0 W/m2 CLR
10:36 -9.1 °C -13 °C 34591.4 hPa Calm     63 % 0 mm 345.0 W/m2 CLR
10:41 -8.8 °C -12.9 °C 34591.4 hPa Calm     62 % 0 mm 285.0 W/m2 CLR
10:46 -8.8 °C -12.9 °C 34591.4 hPa Calm     62 % 0 mm 352.0 W/m2 CLR
10:51 -8.8 °C -12.9 °C 34601.5 hPa Calm     62 % 0 mm 404.0 W/m2 CLR
10:56 -8.8 °C -13.7 °C 34591.4 hPa Calm     56 % 0 mm 422.0 W/m2 CLR
10:57 -8.5 °C -13.4 °C 34591.4 hPa Calm     56 % 0 mm 330.0 W/m2 CLR
11:02 -8.5 °C -13.4 °C 34591.4 hPa Calm     56 % 0 mm 483.0 W/m2 CLR
11:07 -8.2 °C -13.1 °C 34601.5 hPa Calm     56 % 0 mm 452.0 W/m2 CLR
11:12 -8.2 °C -13.4 °C 34601.5 hPa Calm     54 % 0 mm 485.0 W/m2 CLR
11:17 -8.2 °C -13.6 °C 34601.5 hPa Calm     53 % 0 mm 141.0 W/m2 CLR
11:27 -7.9 °C -13.3 °C 34601.5 hPa SW 9 km/h   53 % 0 mm 464.0 W/m2 CLR
11:32 -7.9 °C -13.3 °C 34601.5 hPa WSW 11.9 km/h 11.9 km/h 53 % 0 mm 476.0 W/m2 CLR
11:37 -7.6 °C -13.2 °C 34601.5 hPa WSW 15 km/h 15 km/h 52 % 0 mm 480.0 W/m2 CLR
11:42 -7.6 °C -13.2 °C 34601.5 hPa SW 20.9 km/h 20.9 km/h 52 % 0 mm 496.0 W/m2 CLR
11:47 -7.3 °C -12.7 °C 34601.5 hPa South 15.6 km/h 15.6 km/h 53 % 0 mm 504.0 W/m2 CLR
11:52 -7.3 °C -13.1 °C 34601.5 hPa South 15 km/h 15 km/h 51 % 0 mm 512.0 W/m2 CLR
11:57 -7.3 °C -12.9 °C 34601.5 hPa SSW 9 km/h 9 km/h 52 % 0 mm 524.0 W/m2 CLR
12:02 -7.3 °C -12.9 °C 34601.5 hPa WSW 12.9 km/h 12.9 km/h 52 % 0 mm 534.0 W/m2 CLR
12:07 -7.3 °C -13.1 °C 34601.5 hPa West 15 km/h 15 km/h 51 % 0 mm 547.0 W/m2 CLR
12:12 -7.3 °C -12.9 °C 34601.5 hPa Calm     52 % 0 mm 589.0 W/m2 CLR
12:17 -7 °C -12.9 °C 34601.5 hPa SW 9 km/h   50 % 0 mm 577.0 W/m2 CLR
12:22 -7 °C -13.1 °C 34601.5 hPa SW 20.9 km/h 20.9 km/h 49 % 0 mm 580.0 W/m2 CLR
12:27 -6.7 °C -12.6 °C 34601.5 hPa West 23.3 km/h 23.3 km/h 50 % 0 mm 582.0 W/m2 CLR
12:32 -6.7 °C -12.8 °C 34601.5 hPa West 15 km/h 15 km/h 49 % 0 mm 585.0 W/m2 CLR
12:37 -6.7 °C -12.6 °C 34601.5 hPa West 26.9 km/h 26.9 km/h 50 % 0 mm 585.0 W/m2 CLR
12:43 -6.3 °C -12.6 °C 34601.5 hPa WSW 23.8 km/h 23.8 km/h 49 % 0 mm 589.0 W/m2 CLR
12:48 -6.3 °C -12.3 °C 34601.5 hPa SSW 11.9 km/h 11.9 km/h 50 % 0 mm 589.0 W/m2 CLR
12:53 -6.3 °C -12.7 °C 34601.5 hPa SSW 23.8 km/h 23.8 km/h 48 % 0 mm 591.0 W/m2 CLR
12:58 -6.1 °C -12.1 °C 34601.5 hPa SW 9 km/h   50 % 0 mm 596.0 W/m2 CLR
13:03 -6.1 °C -12.2 °C 34601.5 hPa SW 11.9 km/h 11.9 km/h 49 % 0 mm 599.0 W/m2 CLR
13:08 -6.1 °C -12.2 °C 34601.5 hPa South 15 km/h 15 km/h 49 % 0 mm 603.0 W/m2 CLR
13:13 -6.1 °C -12.4 °C 34601.5 hPa South 17.9 km/h 17.9 km/h 48 % 0 mm 605.0 W/m2 CLR
13:18 -6.1 °C -12.4 °C 34601.5 hPa South 17.9 km/h   48 % 0 mm 608.0 W/m2 CLR
13:23 -6.1 °C -12.4 °C 34601.5 hPa SW 9 km/h 9 km/h 48 % 0 mm 612.0 W/m2 CLR
13:28 -6.1 °C -12.2 °C 34591.4 hPa SW 12.9 km/h 12.9 km/h 49 % 0 mm 613.0 W/m2 CLR
13:33 -6.1 °C -12.4 °C 34591.4 hPa WSW 6 km/h   48 % 0 mm 617.0 W/m2 CLR
13:38 -5.7 °C -11.8 °C 34591.4 hPa Calm     50 % 0 mm 622.0 W/m2 CLR
13:43 -5.7 °C -12.1 °C 34591.4 hPa SSW 20.9 km/h 20.9 km/h 48 % 0 mm 624.0 W/m2 CLR
13:48 -5.7 °C -12.1 °C 34591.4 hPa Calm     48 % 0 mm 629.0 W/m2 CLR
13:53 -5.7 °C -12.3 °C 34591.4 hPa WSW 11.9 km/h 11.9 km/h 47 % 0 mm 633.0 W/m2 CLR
13:58 -5.7 °C -11.9 °C 34591.4 hPa SW 17.9 km/h 17.9 km/h 49 % 0 mm 628.0 W/m2 CLR
14:03 -6.1 °C -12.4 °C 34591.4 hPa WNW 23.8 km/h 23.8 km/h 48 % 0 mm 629.0 W/m2 CLR
14:08 -5.7 °C -11.8 °C 34591.4 hPa West 26.9 km/h 26.9 km/h 50 % 0 mm 631.0 W/m2 CLR
14:13 -6.1 °C -12.2 °C 34591.4 hPa WSW 17.9 km/h 17.9 km/h 49 % 0 mm 615.0 W/m2 CLR
14:18 -6.1 °C -12.2 °C 34591.4 hPa NNW 11.9 km/h   49 % 0 mm 610.0 W/m2 CLR
14:23 -6.1 °C -12.4 °C 34591.4 hPa SW 17.9 km/h 17.9 km/h 48 % 0 mm 606.0 W/m2 CLR
14:28 -5.7 °C -12.1 °C 34591.4 hPa WSW 17.9 km/h 17.9 km/h 48 % 0 mm 606.0 W/m2 CLR
14:33 -5.4 °C -11.8 °C 34577.8 hPa West 20.9 km/h 20.9 km/h 48 % 0 mm 612.0 W/m2 CLR
14:38 -5.4 °C -11.7 °C 34577.8 hPa SW 9 km/h 9 km/h 49 % 0 mm 649.0 W/m2 CLR
14:43 -5.7 °C -12.3 °C 34577.8 hPa WNW 20.9 km/h 20.9 km/h 47 % 0 mm 621.0 W/m2 CLR
14:48 -5.7 °C -12.1 °C 34577.8 hPa West 17.9 km/h   48 % 0 mm 670.0 W/m2 CLR
14:53 -5.7 °C -12.3 °C 34577.8 hPa WSW 20.8 km/h 20.8 km/h 47 % 0 mm 670.0 W/m2 CLR
14:58 -5.4 °C -12 °C 34577.8 hPa West 9 km/h   47 % 0 mm 628.0 W/m2 CLR
15:03 -5.4 °C -11.8 °C 34577.8 hPa WSW 18.2 km/h 18.2 km/h 48 % 0 mm 652.0 W/m2 CLR
15:08 -5.4 °C -12.2 °C 34577.8 hPa West 15 km/h   46 % 0 mm 598.0 W/m2 CLR
15:13 -5.4 °C -12.2 °C 34577.8 hPa Calm     46 % 0 mm 628.0 W/m2 CLR
15:18 -5.4 °C -12 °C 34567.7 hPa NW 9 km/h 9 km/h 47 % 0 mm 336.0 W/m2 CLR
15:23 -5.7 °C -12.3 °C 34567.7 hPa NW 17.9 km/h 17.9 km/h 47 % 0 mm 417.0 W/m2 CLR
15:28 -5.7 °C -12.3 °C 34567.7 hPa WNW 15.6 km/h 15.6 km/h 47 % 0 mm 714.0 W/m2 CLR
15:33 -5.4 °C -12.2 °C 34567.7 hPa WNW 6 km/h 6 km/h 46 % 0 mm 766.0 W/m2 CLR
15:38 -5.4 °C -12.2 °C 34567.7 hPa West 11.9 km/h 11.9 km/h 46 % 0 mm 691.0 W/m2 CLR
15:43 -5.1 °C -11.9 °C 34567.7 hPa West 26.9 km/h 26.9 km/h 46 % 0 mm 640.0 W/m2 CLR
15:48 -5.1 °C -11.9 °C 34567.7 hPa WSW 9 km/h 9 km/h 46 % 0 mm 422.0 W/m2 CLR
15:53 -5.4 °C -12.2 °C 34567.7 hPa WNW 23.8 km/h 23.8 km/h 46 % 0 mm 503.0 W/m2 CLR
15:58 -5.4 °C -12.2 °C 34567.7 hPa SW 17.9 km/h 17.9 km/h 46 % 0 mm 573.0 W/m2 CLR
16:03 -5.1 °C -11.9 °C 34567.7 hPa WSW 23.8 km/h 23.8 km/h 46 % 0 mm 489.0 W/m2 CLR
16:08 -5.4 °C -12.2 °C 34567.7 hPa WNW 6 km/h 6 km/h 46 % 0 mm 494.0 W/m2 CLR
16:13 -5.7 °C -12.3 °C 34567.7 hPa NNW 7.7 km/h 7.7 km/h 47 % 0 mm 476.0 W/m2 CLR
16:18 -5.4 °C -12.2 °C 34567.7 hPa NW 20.9 km/h 20.9 km/h 46 % 0 mm 452.0 W/m2 CLR
16:23 -5.1 °C -11.9 °C 34567.7 hPa NW 17.9 km/h 17.9 km/h 46 % 0 mm 431.0 W/m2 CLR
16:28 -5.1 °C -11.9 °C 34567.7 hPa West 9 km/h 9 km/h 46 % 0 mm 418.0 W/m2 CLR
16:33 -5.4 °C -12.4 °C 34567.7 hPa West 17.9 km/h 17.9 km/h 45 % 0 mm 404.0 W/m2 CLR
16:38 -5.4 °C -12.2 °C 34567.7 hPa WSW 9 km/h 9 km/h 46 % 0 mm 392.0 W/m2 CLR
16:43 -5.4 °C -12.4 °C 34567.7 hPa WSW 17.9 km/h 17.9 km/h 45 % 0 mm 378.0 W/m2 CLR
16:48 -5.4 °C -12.4 °C 34567.7 hPa Calm     45 % 0 mm 367.0 W/m2 CLR
16:53 -5.4 °C -12.4 °C 34567.7 hPa Calm     45 % 0 mm 353.0 W/m2 CLR
16:58 -5.4 °C -12.2 °C 34567.7 hPa Calm     46 % 0 mm 341.0 W/m2 CLR
17:03 -5.4 °C -12.4 °C 34567.7 hPa WNW 23.8 km/h 23.8 km/h 45 % 0 mm 327.0 W/m2 CLR
17:08 -5.4 °C -12.2 °C 34554.1 hPa NW 7.7 km/h 7.7 km/h 46 % 0 mm 316.0 W/m2 CLR
17:13 -5.7 °C -12.4 °C 34554.1 hPa NW 7.7 km/h 7.7 km/h 46 % 0 mm 301.0 W/m2 CLR
17:18 -5.7 °C -12.4 °C 34567.7 hPa North 10.3 km/h 10.3 km/h 46 % 0 mm 287.0 W/m2 CLR
17:23 -5.7 °C -12.4 °C 34567.7 hPa North 11.9 km/h 11.9 km/h 46 % 0 mm 269.0 W/m2 CLR
17:28 -5.7 °C -12.3 °C 34567.7 hPa North 10.3 km/h 10.3 km/h 47 % 0 mm 255.0 W/m2 CLR
17:33 -5.7 °C -12.1 °C 34567.7 hPa Calm     48 % 0 mm 237.0 W/m2 CLR
17:38 -5.7 °C -12.1 °C 34554.1 hPa Calm     48 % 0 mm 223.0 W/m2 CLR
17:43 -5.7 °C -12.1 °C 34554.1 hPa North 9 km/h 9 km/h 48 % 0 mm 202.0 W/m2 CLR
17:48 -5.7 °C -11.9 °C 34554.1 hPa Calm     49 % 0 mm 185.0 W/m2 CLR
17:53 -6.1 °C -12.2 °C 34554.1 hPa Calm     49 % 0 mm 169.0 W/m2 CLR
18:03 -6.1 °C -12.2 °C 34554.1 hPa Calm     49 % 0 mm 132.0 W/m2 CLR
18:08 -6.1 °C -12.2 °C 34567.7 hPa Calm     49 % 0 mm 116.0 W/m2 CLR
18:13 -6.3 °C -12.6 °C 34567.7 hPa Calm     49 % 0 mm 102.0 W/m2 CLR
18:18 -6.3 °C -12.3 °C 34567.7 hPa Calm     50 % 0 mm 86.0 W/m2 CLR
18:23 -6.3 °C -12.3 °C 34567.7 hPa Calm     50 % 0 mm 69.0 W/m2 FEW
18:28 -6.7 °C -12.4 °C 34567.7 hPa Calm     51 % 0 mm 58.0 W/m2 SCT
18:33 -7 °C -12.7 °C 34567.7 hPa Calm     51 % 0 mm 46.0 W/m2 SCT
18:38 -7.3 °C -13.1 °C 34567.7 hPa Calm     51 % 0 mm 35.0 W/m2 BKN
18:43 -7.3 °C -13.1 °C 34567.7 hPa Calm     51 % 0 mm 23.0 W/m2 BKN
18:48 -7.9 °C -13.6 °C 34567.7 hPa Calm     51 % 0 mm 16.0 W/m2 BKN
18:53 -7.9 °C -13.6 °C 34567.7 hPa Calm     51 % 0 mm 12.0 W/m2 BKN
18:58 -8.5 °C -14 °C 34577.8 hPa Calm     52 % 0 mm 11.0 W/m2 BKN
19:03 -8.8 °C -14.2 °C 34577.8 hPa Calm     53 % 0 mm 9.0 W/m2 BKN
19:08 -8.8 °C -14.2 °C 34577.8 hPa Calm     53 % 0 mm 5.0 W/m2 BKN
19:13 -9.1 °C -14.3 °C 34577.8 hPa Calm     54 % 0 mm 0.0 W/m2 OVC
19:18 -9.4 °C -14.4 °C 34577.8 hPa Calm     55 % 0 mm 0.0 W/m2 OVC
19:24 -9.4 °C -14.4 °C 34577.8 hPa Calm     55 % 0 mm 0.0 W/m2 CLR
19:29 -9.8 °C -14.6 °C 34591.4 hPa Calm     56 % 0 mm 0.0 W/m2 CLR
19:34 -9.8 °C -14.4 °C 34591.4 hPa Calm     57 % 0 mm 0.0 W/m2 CLR
19:39 -9.8 °C -14.4 °C 34591.4 hPa Calm     57 % 0 mm 0.0 W/m2 CLR
19:44 -10.1 °C -14.6 °C 34591.4 hPa Calm     58 % 0 mm 0.0 W/m2 CLR
19:49 -9.8 °C -14.2 °C 34591.4 hPa Calm     59 % 0 mm 0.0 W/m2 CLR
19:54 -9.8 °C -14 °C 34591.4 hPa Calm     60 % 0 mm 0.0 W/m2 CLR
19:59 -9.8 °C -13.8 °C 34591.4 hPa Calm     62 % 0 mm 0.0 W/m2 CLR
20:04 -9.8 °C -13.6 °C 34601.5 hPa Calm     63 % 0 mm 0.0 W/m2 CLR
20:09 -9.8 °C -13.5 °C 34601.5 hPa Calm     64 % 0 mm 0.0 W/m2 CLR
20:14 -9.8 °C -13.2 °C 34601.5 hPa Calm     66 % 0 mm 0.0 W/m2 CLR
20:19 -10.1 °C -13.4 °C 34601.5 hPa Calm     67 % 0 mm 0.0 W/m2 CLR
20:24 -10.1 °C -13.3 °C 34601.5 hPa Calm     68 % 0 mm 0.0 W/m2 CLR
20:29 -10.4 °C -13.4 °C 34601.5 hPa Calm     69 % 0 mm 0.0 W/m2 CLR
20:34 -10.4 °C -13.3 °C 34601.5 hPa Calm     70 % 0 mm 0.0 W/m2 CLR
20:39 -10.7 °C -13.7 °C 34601.5 hPa Calm     70 % 0 mm 0.0 W/m2 CLR
20:44 -10.7 °C -13.5 °C 34601.5 hPa Calm     71 % 0 mm 0.0 W/m2 CLR
20:49 -11 °C -13.8 °C 34601.5 hPa Calm     71 % 0 mm 0.0 W/m2 CLR
20:54 -11 °C -13.7 °C 34611.7 hPa Calm     72 % 0 mm 0.0 W/m2 CLR
20:59 -11 °C -13.7 °C 34611.7 hPa Calm     72 % 0 mm 0.0 W/m2 CLR
21:04 -11.3 °C -13.9 °C 34611.7 hPa Calm     73 % 0 mm 0.0 W/m2 CLR
21:09 -11.3 °C -13.8 °C 34611.7 hPa Calm     74 % 0 mm 0.0 W/m2 CLR
21:14 -11.3 °C -13.8 °C 34611.7 hPa Calm     74 % 0 mm 0.0 W/m2 CLR
21:19 -11.6 °C -14 °C 34625.2 hPa Calm     75 % 0 mm 0.0 W/m2 CLR
21:24 -11.6 °C -14 °C 34611.7 hPa Calm     75 % 0 mm 0.0 W/m2 CLR
21:29 -11.6 °C -13.8 °C 34611.7 hPa Calm     76 % 0 mm 0.0 W/m2 CLR
21:34 -11.6 °C -13.8 °C 34625.2 hPa Calm     76 % 0 mm 0.0 W/m2 CLR
21:39 -11.9 °C -14.1 °C 34625.2 hPa Calm     77 % 0 mm 0.0 W/m2 CLR
21:44 -11.9 °C -14.1 °C 34625.2 hPa Calm     77 % 0 mm 0.0 W/m2 CLR
21:49 -11.9 °C -13.9 °C 34625.2 hPa Calm     78 % 0 mm 0.0 W/m2 CLR
21:54 -11.9 °C -13.9 °C 34625.2 hPa Calm     78 % 0 mm 0.0 W/m2 CLR
21:59 -11.9 °C -13.9 °C 34625.2 hPa Calm     78 % 0 mm 0.0 W/m2 CLR
22:04 -11.6 °C -13.6 °C 34625.2 hPa Calm     79 % 0 mm 0.0 W/m2 CLR
22:09 -11.6 °C -13.6 °C 34635.4 hPa Calm     79 % 0 mm 0.0 W/m2 CLR
22:14 -11.6 °C -13.6 °C 34635.4 hPa Calm     79 % 0 mm 0.0 W/m2 CLR
22:19 -11.3 °C -13.2 °C 34635.4 hPa Calm     79 % 0 mm 0.0 W/m2 CLR
22:24 -11.3 °C -13.2 °C 34635.4 hPa Calm     80 % 0 mm 0.0 W/m2 CLR
22:29 -11.6 °C -13.4 °C 34635.4 hPa Calm     80 % 0 mm 0.0 W/m2 CLR
22:34 -11.6 °C -13.6 °C 34635.4 hPa Calm     79 % 0 mm 0.0 W/m2 CLR
22:39 -11.6 °C -13.4 °C 34635.4 hPa Calm     80 % 0 mm 0.0 W/m2 CLR
22:44 -11.6 °C -13.4 °C 34645.6 hPa Calm     80 % 0 mm 0.0 W/m2 CLR
22:49 -11.9 °C -13.8 °C 34645.6 hPa Calm     80 % 0 mm 0.0 W/m2 CLR
22:54 -11.9 °C -13.7 °C 34645.6 hPa Calm     81 % 0 mm 0.0 W/m2 CLR
22:59 -11.9 °C -13.7 °C 34645.6 hPa Calm     81 % 0 mm 0.0 W/m2 CLR
23:04 -11.9 °C -13.7 °C 34645.6 hPa Calm     81 % 0 mm 0.0 W/m2 CLR
23:09 -11.9 °C -13.6 °C 34645.6 hPa Calm     82 % 0 mm 0.0 W/m2 CLR
23:14 -11.9 °C -13.6 °C 34645.6 hPa Calm     82 % 0 mm 0.0 W/m2 CLR
23:19 -11.9 °C -13.7 °C 34645.6 hPa Calm     81 % 0 mm 0.0 W/m2 CLR
23:24 -11.9 °C -13.7 °C 34645.6 hPa Calm     81 % 0 mm 0.0 W/m2 CLR
23:25 -11.9 °C -13.7 °C 34645.6 hPa Calm     81 % 0 mm 0.0 W/m2 CLR
23:30 -11.6 °C -13.4 °C 34645.6 hPa Calm     81 % 0 mm 0.0 W/m2 CLR
23:35 -11.6 °C -13.4 °C 34645.6 hPa Calm     81 % 0 mm 0.0 W/m2 CLR
23:40 -11.6 °C -13.4 °C 34645.6 hPa Calm     81 % 0 mm 0.0 W/m2 CLR
23:45 -11.6 °C -13.4 °C 34645.6 hPa Calm     81 % 0 mm 0.0 W/m2 CLR
23:50 -11.6 °C -13.4 °C 34645.6 hPa Calm     81 % 0 mm 0.0 W/m2 CLR
23:55 -11.6 °C -13.4 °C 34645.6 hPa Calm     81 % 0 mm 0.0 W/m2 CLR
Lo Temps de Massalio
Compliments of Weather Underground - 1.25 mb